Latest Coastal Weather Observations for Hindmarsh Island

IDS60701

Issued at 6:21 am CST Saturday 24 June 2017 (issued every 10 minutes, with the page automatically refreshed every 10 minutes)

About coastal observations | Map of coastal stations | Coastal observations for SA | Marine services | Other Formats
Station Details ID: 023894 Name: HINDMARSH ISLAND AWS Lat: -35.52 Lon: 138.82 Height: 11.0 m
Data from the previous 72 hours. | See also: Recent months at Hindmarsh Island
Date/Time
CST
Temp
°C
Wind Pressure Rain since
9am
mm
Weather Cloud Vis
km
Sea
Height
m
Swell
Dir  Spd
kts
Gust
kts
hPa Trend Height
m
Period
s
Dir
24/06:00am 11.1 SW 6 7 1019.1 - 0.6 Rain - - - - - -
24/05:30am 10.4 NW 5 6 1018.7 - 0.2 - - - - - - -
24/05:00am 10.2 NNW 4 5 1018.7 - 0.2 - - - - - - -
24/04:30am 10.4 WNW 5 6 1018.6 - 0.2 - - - - - - -
24/04:00am 9.7 WNW 4 6 1018.5 - 0.2 - - - - - - -
24/03:30am 9.4 NW 5 6 1018.4 - 0.2 - - - - - - -
24/03:00am 8.9 NW 4 5 1018.4 - 0.0 - - - - - - -
24/02:30am 9.3 NNW 7 7 1018.6 - 0.0 - - - - - - -
24/02:00am 9.7 NW 7 7 1018.4 - 0.0 - - - - - - -
24/01:30am 10.4 WNW 6 7 1018.4 - 0.0 - - - - - - -
24/01:00am 10.7 WNW 6 7 1018.5 - 0.0 - - - - - - -
24/12:30am 11.4 W 5 6 1018.5 - 0.0 - - - - - - -
24/12:00am 11.3 WNW 6 7 1018.5 - 0.0 - - - - - - -
 
Date/Time
CST
Temp
°C
Wind Pressure Rain since
9am
mm
Weather Cloud Vis
km
Sea
Height
m
Swell
Dir  Spd
kts
Gust
kts
hPa Trend Height
m
Period
s
Dir
23/11:30pm 11.5 W 5 7 1018.5 - 0.0 - - - - - - -
23/11:00pm 11.9 W 6 7 1018.5 - 0.0 - - - - - - -
23/10:30pm 11.7 W 6 7 1018.6 - 0.0 - - - - - - -
23/10:00pm 12.5 WSW 7 8 1018.6 - 0.0 - - - - - - -
23/09:30pm 11.7 WSW 7 8 1018.4 - 0.0 - - - - - - -
23/09:00pm 11.1 WSW 6 7 1018.3 - 0.0 - - - - - - -
23/08:30pm 11.2 WNW 6 7 1018.1 - 0.0 - - - - - - -
23/08:00pm 11.5 NW 6 7 1017.8 - 0.0 - - - - - - -
23/07:30pm 11.6 NW 7 7 1017.9 - 0.0 - - - - - - -
23/07:00pm 12.4 WNW 7 7 1017.6 - 0.0 - - - - - - -
23/06:30pm 12.4 NW 6 6 1017.3 - 0.0 - - - - - - -
23/06:00pm 13.2 WNW 5 6 1017.1 - 0.0 - - - - - - -
23/05:30pm 14.1 NW 5 6 1016.8 - 0.0 - - - - - - -
23/05:00pm 15.1 NNW 4 5 1016.5 - 0.0 - - - - - - -
23/04:30pm 16.6 WNW 5 7 1016.4 - 0.0 - - - - - - -
23/04:00pm 16.4 NW 7 9 1016.4 - 0.0 - - - - - - -
23/03:30pm 16.9 WNW 7 8 1016.2 - 0.0 - - - - - - -
23/03:00pm 17.7 WNW 8 11 1016.3 - 0.0 - - - - - - -
23/02:30pm 17.7 WNW 9 12 1016.3 - 0.0 - - - - - - -
23/02:00pm 17.4 WNW 11 14 1016.4 - 0.0 - - - - - - -
23/01:30pm 17.6 WNW 9 11 1016.7 - 0.0 - - - - - - -
23/01:00pm 18.2 W 6 9 1016.7 - 0.0 - - - - - - -
23/12:30pm 18.2 WNW 8 11 1017.0 - 0.0 - - - - - - -
23/12:00pm 17.8 WSW 9 12 1017.4 - 0.0 - - - - - - -
23/11:30am 17.6 SSW 8 13 1017.6 - 0.0 - - - - - - -
23/11:00am 17.4 WNW 6 9 1017.9 - 0.0 - - - - - - -
23/10:30am 15.4 SSE 3 6 1018.2 - 0.0 - - - - - - -
23/10:00am 15.4 WNW 9 13 1018.2 - 0.0 - - - - - - -
23/09:30am 13.9 CALM 0 0 1018.0 - 0.0 - - - - - - -
23/09:00am 13.1 NNW 7 10 1018.2 - 0.0 - - - - - - -
23/08:30am 11.9 SW 5 9 1018.0 - 0.0 - - - - - - -
23/08:00am 11.1 NNW 8 11 1017.8 - 0.0 - - - - - - -
23/07:30am 11.0 NW 9 13 1017.9 - 0.0 - - - - - - -
23/07:00am 12.2 WSW 6 9 1017.9 - 0.0 - - - - - - -
23/06:30am 11.7 WNW 7 13 1017.6 - 0.0 - - - - - - -
23/06:00am 11.5 NNW 13 17 1016.9 - 0.0 - - - - - - -
23/05:30am 11.8 NNW 12 17 1016.9 - 0.0 - - - - - - -
23/05:00am 11.4 W 4 6 1017.7 - 0.0 - - - - - - -
23/04:30am 10.0 W 4 6 1017.7 - 0.0 - - - - - - -
23/04:00am 9.7 NNW 8 11 1017.7 - 0.0 - - - - - - -
23/03:30am 9.3 NNW 6 7 1017.8 - 0.0 - - - - - - -
23/03:00am 9.6 NNW 7 8 1018.2 - 0.0 - - - - - - -
23/02:30am 10.0 NNW 9 12 1018.3 - 0.0 - - - - - - -
23/02:00am 9.3 NNW 9 11 1018.6 - 0.0 - - - - - - -
23/01:30am 7.2 N 4 6 1018.7 - 0.0 - - - - - - -
23/01:00am 7.0 N 4 6 1019.0 - 0.0 - - - - - - -
23/12:30am 6.5 NNW 3 4 1019.4 - 0.0 - - - - - - -
23/12:00am 6.8 NNE 5 8 1019.5 - 0.0 - - - - - - -
 
Date/Time
CST
Temp
°C
Wind Pressure Rain since
9am
mm
Weather Cloud Vis
km
Sea
Height
m
Swell
Dir  Spd
kts
Gust
kts
hPa Trend Height
m
Period
s
Dir
22/11:30pm 6.7 NNE 5 6 1020.0 - 0.0 - - - - - - -
22/11:00pm 7.6 N 5 6 1020.4 - 0.0 - - - - - - -
22/10:30pm 8.1 NNW 4 6 1020.6 - 0.0 - - - - - - -
22/10:00pm 7.6 N 3 5 1020.8 - 0.0 - - - - - - -
22/09:30pm 8.6 NNW 5 6 1021.1 - 0.0 - - - - - - -
22/09:00pm 9.3 NNW 5 6 1021.2 - 0.0 - - - - - - -
22/08:30pm 10.0 NNW 5 7 1021.1 - 0.0 - - - - - - -
22/08:00pm 10.0 N 7 9 1021.3 - 0.0 - - - - - - -
22/07:30pm 11.0 NE 5 6 1021.1 - 0.0 - - - - - - -
22/07:00pm 12.5 SSW 2 3 1021.3 - 0.0 - - - - - - -
22/06:30pm 12.8 W 2 4 1021.2 - 0.0 - - - - - - -
22/06:00pm 12.8 NW 3 5 1021.2 - 0.0 - - - - - - -
22/05:30pm 14.6 N 5 6 1021.2 - 0.0 - - - - - - -
22/05:00pm 15.4 ENE 3 4 1021.4 - 0.0 - - - - - - -
22/04:30pm 15.8 E 5 6 1021.3 - 0.0 - - - - - - -
22/04:00pm 17.4 ENE 7 8 1021.4 - 0.0 - - - - - - -
22/03:30pm 18.3 ENE 5 7 1021.4 - 0.0 - - - - - - -
22/03:00pm 18.8 NNE 6 8 1021.3 - 0.0 - - - - - - -
22/02:30pm 19.0 NE 5 8 1021.5 - 0.0 - - - - - - -
22/02:00pm 18.6 NE 6 9 1021.9 - 0.0 - - - - - - -
22/01:30pm 18.4 NNE 6 8 1022.4 - 0.0 - - - - - - -
22/01:00pm 17.7 NNE 7 9 1023.0 - 0.0 - - - - - - -
22/12:30pm 17.0 NE 8 9 1023.7 - 0.0 - - - - - - -
22/12:00pm 15.9 NNE 8 10 1024.4 - 0.0 - - - - - - -
22/11:30am 14.4 NE 8 10 1025.2 - 0.0 - - - - - - -
22/11:00am 12.7 NNE 7 9 1025.7 - 0.0 - - - - - - -
22/10:30am 11.6 NNE 7 10 1026.2 - 0.0 - - - - - - -
22/10:00am 10.8 NE 8 10 1026.2 - 0.0 - - - - - - -
22/09:30am 9.7 NNE 5 7 1026.5 - 0.0 - - - - - - -
22/09:00am 8.7 NNE 4 6 1026.4 - 0.2 - - - - - - -
22/08:30am 7.2 N 8 9 1026.5 - 0.2 - - - - - - -
22/08:00am 6.5 N 10 12 1026.1 - 0.2 - - - - - - -
22/07:30am 6.0 N 10 11 1026.0 - 0.2 - - - - - - -
22/07:00am 6.1 N 9 11 1025.9 - 0.2 - - - - - - -
22/06:30am 6.1 NNE 2 4 1025.9 - 0.0 - - - - - - -
22/06:00am 6.7 NNE 8 11 1025.5 - 0.0 - - - - - - -
22/05:30am 6.6 NE 5 6 1025.4 - 0.0 - - - - - - -
22/05:00am 6.8 NE 4 5 1025.5 - 0.0 - - - - - - -
22/04:30am 7.1 NNE 3 4 1025.5 - 0.0 - - - - - - -
22/04:00am 6.8 ENE 5 6 1025.4 - 0.0 - - - - - - -
22/03:30am 7.1 ENE 3 4 1025.7 - 0.0 - - - - - - -
22/03:00am 8.0 N 4 6 1025.9 - 0.0 - - - - - - -
22/02:30am 8.4 NE 5 6 1025.8 - 0.0 - - - - - - -
22/02:00am 8.3 NE 5 6 1026.0 - 0.0 - - - - - - -
22/01:30am 9.2 CALM 0 0 1025.9 - 0.0 - - - - - - -
22/01:00am 9.9 N 3 5 1026.1 - 0.0 - - - - - - -
22/12:30am 10.7 NNW 3 4 1026.3 - 0.0 - - - - - - -
22/12:00am 10.9 N 2 4 1026.7 - 0.0 - - - - - - -
 
Date/Time
CST
Temp
°C
Wind Pressure Rain since
9am
mm
Weather Cloud Vis
km
Sea
Height
m
Swell
Dir  Spd
kts
Gust
kts
hPa Trend Height
m
Period
s
Dir
21/11:30pm 10.6 N 6 8 1027.0 - 0.0 - - - - - - -
21/11:00pm 10.5 N 4 6 1027.0 - 0.0 - - - - - - -
21/10:30pm 10.0 N 4 5 1027.0 - 0.0 - - - - - - -
21/10:00pm 9.8 N 6 7 1027.4 - 0.0 - - - - - - -
21/09:30pm 10.2 NW 5 5 1027.6 - 0.0 - - - - - - -
21/09:00pm 10.6 NNW 2 5 1027.6 - 0.0 - - - - - - -
21/08:30pm 11.1 CALM 0 0 1027.7 - 0.0 - - - - - - -
21/08:00pm 11.8 N 3 4 1027.6 - 0.0 - - - - - - -
21/07:30pm 11.7 NNE 3 5 1027.4 - 0.0 - - - - - - -
21/07:00pm 13.2 S 3 5 1027.3 - 0.0 - - - - - - -
21/06:30pm 13.5 SSW 4 4 1027.1 - 0.0 - - - - - - -
21/06:00pm 13.9 SSW 4 4 1026.9 - 0.0 - - - - - - -
21/05:30pm 14.0 SSW 4 5 1026.8 - 0.0 - - - - - - -
21/05:00pm 14.2 S 6 6 1026.8 - 0.0 - - - - - - -
21/04:30pm 14.7 S 6 7 1026.7 - 0.0 - - - - - - -
21/04:00pm 15.3 S 6 7 1026.8 - 0.0 - - - - - - -
21/03:30pm 15.7 S 5 7 1026.7 - 0.0 - - - - - - -
21/03:00pm 15.8 S 7 8 1026.6 - 0.0 - - - - - - -
21/02:30pm 15.4 SSE 7 8 1026.4 - 0.0 - - - - - - -
21/02:00pm 16.1 S 9 10 1026.5 - 0.0 - - - - - - -
21/01:30pm 16.6 SSE 7 8 1027.1 - 0.0 - - - - - - -
21/01:00pm 16.8 S 6 7 1027.3 - 0.0 - - - - - - -
21/12:30pm 17.0 SSW 7 8 1027.5 - 0.0 - - - - - - -
21/12:00pm 16.8 SSW 6 7 1027.9 - 0.0 - - - - - - -
21/11:30am 16.4 SSW 4 5 1028.4 - 0.0 - - - - - - -
21/11:00am 16.3 SSE 2 4 1028.7 - 0.0 - - - - - - -
21/10:30am 15.4 SSE 4 4 1028.7 - 0.0 - - - - - - -
21/10:00am 14.9 ESE 2 4 1028.7 - 0.0 - - - - - - -
21/09:30am 13.5 NNE 3 4 1028.8 - 0.0 - - - - - - -
21/09:00am 12.3 N 4 5 1028.5 - 0.0 - - - - - - -
21/08:30am 10.9 NNW 5 6 1028.2 - 0.0 - - - - - - -
21/08:00am 10.0 NNW 4 5 1028.0 - 0.0 - - - - - - -
21/07:30am 9.6 N 5 7 1027.7 - 0.0 - - - - - - -
21/07:00am 10.0 NNW 5 6 1027.6 - 0.0 - - - - - - -
21/06:30am 9.8 NW 6 6 1027.4 - 0.0 - - - - - - -

Other Formats:

Comma delimited format used in spreadsheet applications
http://www.bom.gov.au/fwo/IDS60701/IDS60701.94677.axf

JavaScript Object Notation format (JSON) in row-major order
http://www.bom.gov.au/fwo/IDS60701/IDS60701.94677.json